createdAt,value
2023-04-16T00:00:30.411Z,7.4697
2023-04-16T00:01:32.042Z,7.4718
2023-04-16T00:02:33.854Z,7.4740
2023-04-16T00:03:35.551Z,7.4430
2023-04-16T00:04:37.023Z,7.4545
2023-04-16T00:05:38.664Z,7.4757
2023-04-16T00:06:40.293Z,7.5128
2023-04-16T00:07:41.900Z,7.5057
2023-04-16T00:08:43.670Z,7.4978
2023-04-16T00:09:45.203Z,7.4492
2023-04-16T00:10:46.987Z,7.4999
2023-04-16T00:11:48.583Z,7.4902
2023-04-16T00:12:50.255Z,7.5017
2023-04-16T00:13:51.865Z,7.4685
2023-04-16T00:14:53.500Z,7.4707
2023-04-16T00:15:55.229Z,7.4229
2023-04-16T00:16:56.901Z,7.4362
2023-04-16T00:17:58.558Z,7.4430
2023-04-16T00:19:00.184Z,7.4578
2023-04-16T00:20:01.861Z,7.4859
2023-04-16T00:21:03.446Z,7.4500
2023-04-16T00:22:05.102Z,7.4611
2023-04-16T00:23:06.690Z,7.4266
2023-04-16T00:24:08.340Z,7.4362
2023-04-16T00:25:09.983Z,7.4286
2023-04-16T00:26:11.693Z,7.4292
2023-04-16T00:27:13.282Z,7.3972
2023-04-16T00:28:14.927Z,7.4038
2023-04-16T00:29:16.582Z,7.4276
2023-04-16T00:30:18.236Z,7.4354
2023-04-16T00:31:19.977Z,7.4366
2023-04-16T00:32:21.547Z,7.4455
2023-04-16T00:33:23.151Z,7.4459
2023-04-16T00:34:24.803Z,7.4728
2023-04-16T00:35:26.443Z,7.4734
2023-04-16T00:36:28.161Z,7.4718
2023-04-16T00:37:29.740Z,7.4880
2023-04-16T00:38:31.466Z,7.4666
2023-04-16T00:39:33.060Z,7.4631
2023-04-16T00:40:34.743Z,7.4095
2023-04-16T00:41:36.417Z,7.3871
2023-04-16T00:42:38.014Z,7.3859
2023-04-16T00:43:39.662Z,7.3834
2023-04-16T00:44:41.327Z,7.3693
2023-04-16T00:45:42.963Z,7.3814
2023-04-16T00:46:44.753Z,7.3734
2023-04-16T00:47:46.310Z,7.3504
2023-04-16T00:48:47.900Z,7.3442
2023-04-16T00:49:49.545Z,7.3637
2023-04-16T00:50:51.199Z,7.3471
2023-04-16T00:51:52.863Z,7.3857
2023-04-16T00:52:54.476Z,7.3656
2023-04-16T00:53:56.149Z,7.3664
2023-04-16T00:54:57.766Z,7.3378
2023-04-16T00:55:59.459Z,7.3471
2023-04-16T00:57:01.083Z,7.3267
2023-04-16T00:58:02.749Z,7.3516
2023-04-16T00:59:04.443Z,7.3126
2023-04-16T01:00:06.111Z,7.3237
2023-04-16T01:01:07.845Z,7.3374
2023-04-16T01:02:09.441Z,7.3721
2023-04-16T01:03:11.116Z,7.3857
2023-04-16T01:04:12.753Z,7.4249
2023-04-16T01:05:14.287Z,7.4149
2023-04-16T01:06:15.918Z,7.3992
2023-04-16T01:07:17.565Z,7.4005
2023-04-16T01:08:19.219Z,7.3723
2023-04-16T01:09:20.845Z,7.4001
2023-04-16T01:10:22.487Z,7.3847
2023-04-16T01:11:24.165Z,7.3738
2023-04-16T01:12:25.773Z,7.3824
2023-04-16T01:13:27.411Z,7.3608
2023-04-16T01:14:29.043Z,7.3734
2023-04-16T01:15:30.727Z,7.3925
2023-04-16T01:16:32.408Z,7.3534
2023-04-16T01:17:34.058Z,7.3793
2023-04-16T01:18:35.688Z,7.3982
2023-04-16T01:19:37.285Z,7.4428
2023-04-16T01:20:38.964Z,7.4294
2023-04-16T01:21:40.607Z,7.4471
2023-04-16T01:22:42.244Z,7.4374
2023-04-16T01:23:43.904Z,7.4231
2023-04-16T01:24:45.534Z,7.4514
2023-04-16T01:25:47.208Z,7.4516
2023-04-16T01:26:48.848Z,7.4740
2023-04-16T01:27:50.474Z,7.4492
2023-04-16T01:28:52.126Z,7.4432
2023-04-16T01:29:53.768Z,7.4555
2023-04-16T01:30:55.536Z,7.4757
2023-04-16T01:31:57.061Z,7.4237
2023-04-16T01:32:58.719Z,7.3859
2023-04-16T01:34:00.331Z,7.4027
2023-04-16T01:35:02.166Z,7.4161
2023-04-16T01:36:03.636Z,7.3972
2023-04-16T01:37:05.305Z,7.4298
2023-04-16T01:38:06.905Z,7.4453
2023-04-16T01:39:08.737Z,7.4331
2023-04-16T01:40:10.189Z,7.4253
2023-04-16T01:41:11.848Z,7.3812
2023-04-16T01:42:13.543Z,7.3612
2023-04-16T01:43:15.162Z,7.3629
2023-04-16T01:44:16.766Z,7.3374
2023-04-16T01:45:18.464Z,7.3803
2023-04-16T01:46:20.145Z,7.3822
2023-04-16T01:47:21.788Z,7.4027
2023-04-16T01:48:23.366Z,7.4140
2023-04-16T01:49:24.992Z,7.3945
2023-04-16T01:50:26.677Z,7.3623
2023-04-16T01:51:28.281Z,7.4040
2023-04-16T01:52:29.986Z,7.3892
2023-04-16T01:53:31.649Z,7.4266
2023-04-16T01:54:33.324Z,7.4025
2023-04-16T01:55:34.914Z,7.3847
2023-04-16T01:56:36.566Z,7.3493
2023-04-16T01:57:38.287Z,7.3658
2023-04-16T01:58:39.865Z,7.3834
2023-04-16T01:59:41.486Z,7.3709
2023-04-16T02:00:43.264Z,7.3947
2023-04-16T02:01:44.820Z,7.4395
2023-04-16T02:02:46.702Z,7.4461
2023-04-16T02:03:48.236Z,7.4309
2023-04-16T02:04:49.801Z,7.4418
2023-04-16T02:05:51.383Z,7.4430
2023-04-16T02:06:53.075Z,7.4126
2023-04-16T02:07:54.692Z,7.4204
2023-04-16T02:08:56.306Z,7.4296
2023-04-16T02:09:57.941Z,7.4216
2023-04-16T02:10:59.572Z,7.4200
2023-04-16T02:12:01.225Z,7.4038
2023-04-16T02:13:02.909Z,7.4344
2023-04-16T02:14:04.536Z,7.3982
2023-04-16T02:15:06.181Z,7.3869
2023-04-16T02:16:07.829Z,7.3812
2023-04-16T02:17:09.443Z,7.3810
2023-04-16T02:18:11.157Z,7.3705
2023-04-16T02:19:12.810Z,7.3916
2023-04-16T02:20:14.429Z,7.3824
2023-04-16T02:21:16.041Z,7.4259
2023-04-16T02:22:17.692Z,7.4381
2023-04-16T02:23:19.405Z,7.4588
2023-04-16T02:24:20.980Z,7.3834
2023-04-16T02:25:22.623Z,7.3960
2023-04-16T02:26:24.329Z,7.3879
2023-04-16T02:27:25.920Z,7.3711
2023-04-16T02:28:27.599Z,7.3732
2023-04-16T02:29:29.184Z,7.3391
2023-04-16T02:30:30.849Z,7.3559
2023-04-16T02:31:32.514Z,7.3487
2023-04-16T02:32:34.186Z,7.3148
2023-04-16T02:33:35.833Z,7.3107
2023-04-16T02:34:37.461Z,7.3095
2023-04-16T02:35:39.131Z,7.3070
2023-04-16T02:36:40.728Z,7.3407
2023-04-16T02:37:42.372Z,7.3376
2023-04-16T02:38:44.131Z,7.3345
2023-04-16T02:39:45.708Z,7.3050
2023-04-16T02:40:47.345Z,7.3493
2023-04-16T02:41:48.963Z,7.3282
2023-04-16T02:42:50.630Z,7.3407
2023-04-16T02:43:52.301Z,7.3578
2023-04-16T02:44:53.918Z,7.3442
2023-04-16T02:45:55.538Z,7.3212
2023-04-16T02:46:57.122Z,7.2805
2023-04-16T02:47:58.820Z,7.3128
2023-04-16T02:49:00.464Z,7.3333
2023-04-16T02:50:02.049Z,7.3442
2023-04-16T02:51:03.714Z,7.3292
2023-04-16T02:52:05.393Z,7.3313
2023-04-16T02:53:07.022Z,7.3136
2023-04-16T02:54:08.695Z,7.3163
2023-04-16T02:55:10.324Z,7.3302
2023-04-16T02:56:11.955Z,7.3399
2023-04-16T02:57:13.631Z,7.3282
2023-04-16T02:58:15.230Z,7.3428
2023-04-16T02:59:16.913Z,7.3276
2023-04-16T03:00:18.547Z,7.3526
2023-04-16T03:01:20.214Z,7.2953
2023-04-16T03:02:22.272Z,7.3009
2023-04-16T03:03:23.526Z,7.3315
2023-04-16T03:04:25.169Z,7.3483
2023-04-16T03:05:26.790Z,7.3407
2023-04-16T03:06:28.429Z,7.3105
2023-04-16T03:07:30.133Z,7.2818
2023-04-16T03:08:31.690Z,7.2622
2023-04-16T03:09:33.390Z,7.2633
2023-04-16T03:10:35.029Z,7.2742
2023-04-16T03:11:36.671Z,7.2916
2023-04-16T03:12:38.313Z,7.3105
2023-04-16T03:13:39.977Z,7.2902
2023-04-16T03:14:41.670Z,7.3029
2023-04-16T03:15:43.280Z,7.2752
2023-04-16T03:16:44.962Z,7.2401
2023-04-16T03:17:46.591Z,7.2536
2023-04-16T03:18:48.175Z,7.2645
2023-04-16T03:19:49.874Z,7.2405
2023-04-16T03:20:51.468Z,7.2364
2023-04-16T03:21:53.140Z,7.2199
2023-04-16T03:22:54.799Z,7.1951
2023-04-16T03:23:56.438Z,7.1998
2023-04-16T03:24:58.115Z,7.2016
2023-04-16T03:25:59.733Z,7.1862
2023-04-16T03:27:01.381Z,7.1830
2023-04-16T03:28:03.013Z,7.1914
2023-04-16T03:29:04.672Z,7.1998
2023-04-16T03:30:06.338Z,7.1758
2023-04-16T03:31:07.965Z,7.1706
2023-04-16T03:32:09.638Z,7.1671
2023-04-16T03:33:11.417Z,7.1955
2023-04-16T03:34:12.929Z,7.2072
2023-04-16T03:35:14.604Z,7.1986
2023-04-16T03:36:16.280Z,7.1832
2023-04-16T03:37:17.918Z,7.2224
2023-04-16T03:38:19.567Z,7.2532
2023-04-16T03:39:21.282Z,7.2115
2023-04-16T03:40:22.962Z,7.2125
2023-04-16T03:41:24.540Z,7.2051
2023-04-16T03:42:26.231Z,7.1908
2023-04-16T03:43:27.866Z,7.1634
2023-04-16T03:44:29.481Z,7.1776
2023-04-16T03:45:31.233Z,7.1823
2023-04-16T03:46:32.852Z,7.1986
2023-04-16T03:47:34.463Z,7.2269
2023-04-16T03:48:36.172Z,7.2214
2023-04-16T03:49:37.732Z,7.1918
2023-04-16T03:50:39.496Z,7.2094
2023-04-16T03:51:41.052Z,7.2115
2023-04-16T03:52:42.684Z,7.2006
2023-04-16T03:53:44.322Z,7.1864
2023-04-16T03:54:46.021Z,7.1521
2023-04-16T03:55:47.683Z,7.0965
2023-04-16T03:56:49.275Z,7.1263
2023-04-16T03:57:50.933Z,7.1361
2023-04-16T03:58:52.576Z,7.1133
2023-04-16T03:59:54.215Z,7.1024
2023-04-16T04:00:55.918Z,7.1121
2023-04-16T04:01:57.712Z,7.1123
2023-04-16T04:02:59.305Z,7.1402
2023-04-16T04:04:00.971Z,7.1330
2023-04-16T04:05:02.631Z,7.1281
2023-04-16T04:06:04.150Z,7.1191
2023-04-16T04:07:05.780Z,7.1491
2023-04-16T04:08:07.416Z,7.1521
2023-04-16T04:09:09.281Z,7.1363
2023-04-16T04:10:10.718Z,7.1454
2023-04-16T04:11:12.443Z,7.1589
2023-04-16T04:12:14.018Z,7.1427
2023-04-16T04:13:15.655Z,7.1671
2023-04-16T04:14:17.297Z,7.1684
2023-04-16T04:15:18.935Z,7.1887
2023-04-16T04:16:20.665Z,7.1916
2023-04-16T04:17:22.340Z,7.1735
2023-04-16T04:18:23.855Z,7.1717
2023-04-16T04:19:25.542Z,7.1562
2023-04-16T04:20:27.188Z,7.1261
2023-04-16T04:21:28.887Z,7.1334
2023-04-16T04:22:30.478Z,7.1641
2023-04-16T04:23:32.144Z,7.1400
2023-04-16T04:24:33.811Z,7.0807
2023-04-16T04:25:35.432Z,7.0883
2023-04-16T04:26:37.226Z,7.1109
2023-04-16T04:27:38.738Z,7.1230
2023-04-16T04:28:40.310Z,7.1049
2023-04-16T04:29:41.941Z,7.1250
2023-04-16T04:30:43.625Z,7.1433
2023-04-16T04:31:45.358Z,7.1250
2023-04-16T04:32:46.940Z,7.1166
2023-04-16T04:33:48.565Z,7.1293
2023-04-16T04:34:50.386Z,7.1102
2023-04-16T04:35:51.828Z,7.1137
2023-04-16T04:36:53.521Z,7.1345
2023-04-16T04:37:55.142Z,7.1445
2023-04-16T04:38:56.808Z,7.1486
2023-04-16T04:39:58.425Z,7.1706
2023-04-16T04:41:00.148Z,7.1809
2023-04-16T04:42:01.820Z,7.1803
2023-04-16T04:43:03.397Z,7.1745
2023-04-16T04:44:05.024Z,7.1885
2023-04-16T04:45:06.687Z,7.2016
2023-04-16T04:46:08.417Z,7.2039
2023-04-16T04:47:10.000Z,7.2027
2023-04-16T04:48:11.601Z,7.2185
2023-04-16T04:49:13.262Z,7.2234
2023-04-16T04:50:14.893Z,7.2255
2023-04-16T04:51:16.545Z,7.1994
2023-04-16T04:52:18.209Z,7.2267
2023-04-16T04:53:19.827Z,7.1973
2023-04-16T04:54:21.464Z,7.1739
2023-04-16T04:55:23.121Z,7.1992
2023-04-16T04:56:24.762Z,7.2107
2023-04-16T04:57:26.442Z,7.1951
2023-04-16T04:58:28.061Z,7.1973
2023-04-16T04:59:29.721Z,7.2029
2023-04-16T05:00:31.366Z,7.1680
2023-04-16T05:01:33.190Z,7.1758
2023-04-16T05:02:34.895Z,7.1780
2023-04-16T05:03:37.207Z,7.2094
2023-04-16T05:04:38.118Z,7.2298
2023-04-16T05:05:39.738Z,7.2277
2023-04-16T05:06:41.430Z,7.2339
2023-04-16T05:07:43.064Z,7.2456
2023-04-16T05:08:44.677Z,7.2598
2023-04-16T05:09:46.332Z,7.2935
2023-04-16T05:10:47.953Z,7.2869
2023-04-16T05:11:49.596Z,7.3050
2023-04-16T05:12:51.302Z,7.2772
2023-04-16T05:13:52.975Z,7.2879
2023-04-16T05:14:54.592Z,7.2795
2023-04-16T05:15:56.212Z,7.2840
2023-04-16T05:16:57.941Z,7.3093
2023-04-16T05:17:59.602Z,7.3004
2023-04-16T05:19:01.195Z,7.3230
2023-04-16T05:20:02.789Z,7.3335
2023-04-16T05:21:04.444Z,7.3409
2023-04-16T05:22:06.072Z,7.3701
2023-04-16T05:23:07.765Z,7.3937
2023-04-16T05:24:09.328Z,7.3824
2023-04-16T05:25:10.969Z,7.4021
2023-04-16T05:26:12.604Z,7.4161
2023-04-16T05:27:14.243Z,7.3812
2023-04-16T05:28:15.899Z,7.3791
2023-04-16T05:29:17.539Z,7.3610
2023-04-16T05:30:19.176Z,7.3555
2023-04-16T05:31:20.971Z,7.3834
2023-04-16T05:32:22.504Z,7.3791
2023-04-16T05:33:24.144Z,7.3744
2023-04-16T05:34:25.772Z,7.3723
2023-04-16T05:35:27.412Z,7.3777
2023-04-16T05:36:29.131Z,7.3721
2023-04-16T05:37:30.773Z,7.3734
2023-04-16T05:38:32.497Z,7.3836
2023-04-16T05:39:34.056Z,7.3721
2023-04-16T05:40:35.634Z,7.3471
2023-04-16T05:41:37.283Z,7.3450
2023-04-16T05:42:38.911Z,7.3563
2023-04-16T05:43:40.621Z,7.3666
2023-04-16T05:44:42.240Z,7.3713
2023-04-16T05:45:43.876Z,7.3736
2023-04-16T05:46:45.520Z,7.3970
2023-04-16T05:47:47.230Z,7.3766
2023-04-16T05:48:48.831Z,7.3450
2023-04-16T05:49:50.426Z,7.3333
2023-04-16T05:50:52.089Z,7.3419
2023-04-16T05:51:53.747Z,7.3481
2023-04-16T05:52:55.388Z,7.3419
2023-04-16T05:53:57.069Z,7.3267
2023-04-16T05:54:58.690Z,7.3403
2023-04-16T05:56:00.372Z,7.3596
2023-04-16T05:57:02.036Z,7.3921
2023-04-16T05:58:03.648Z,7.3727
2023-04-16T05:59:05.310Z,7.3916
2023-04-16T06:00:07.017Z,7.3912
2023-04-16T06:01:08.615Z,7.4128
2023-04-16T06:02:10.243Z,7.3970
2023-04-16T06:03:12.041Z,7.3522
2023-04-16T06:04:13.891Z,7.3313
2023-04-16T06:05:15.281Z,7.3150
2023-04-16T06:06:16.830Z,7.3004
2023-04-16T06:07:18.458Z,7.3097
2023-04-16T06:08:20.114Z,7.3179
2023-04-16T06:09:21.827Z,7.3452
2023-04-16T06:10:23.387Z,7.3430
2023-04-16T06:11:24.996Z,7.3575
2023-04-16T06:12:26.656Z,7.3514
2023-04-16T06:13:28.300Z,7.3460
2023-04-16T06:14:29.961Z,7.3407
2023-04-16T06:15:31.590Z,7.3791
2023-04-16T06:16:33.364Z,7.3869
2023-04-16T06:17:34.937Z,7.3980
2023-04-16T06:18:36.501Z,7.3929
2023-04-16T06:19:38.177Z,7.3869
2023-04-16T06:20:39.818Z,7.3578
2023-04-16T06:21:41.458Z,7.3440
2023-04-16T06:22:43.097Z,7.3534
2023-04-16T06:23:44.770Z,7.3812
2023-04-16T06:24:46.456Z,7.4038
2023-04-16T06:25:48.038Z,7.4175
2023-04-16T06:26:49.701Z,7.4473
2023-04-16T06:27:51.374Z,7.4568
2023-04-16T06:28:52.993Z,7.4598
2023-04-16T06:29:54.688Z,7.4726
2023-04-16T06:30:56.278Z,7.4820
2023-04-16T06:31:57.894Z,7.4985
2023-04-16T06:32:59.578Z,7.5075
2023-04-16T06:34:01.257Z,7.5178
2023-04-16T06:35:03.017Z,7.5161
2023-04-16T06:36:04.524Z,7.5334
2023-04-16T06:37:07.184Z,7.5476
2023-04-16T06:38:07.825Z,7.5541
2023-04-16T06:39:09.804Z,7.5646
2023-04-16T06:40:11.129Z,7.5817
2023-04-16T06:41:12.734Z,7.5806
2023-04-16T06:42:14.403Z,7.6003
2023-04-16T06:43:16.021Z,7.6014
2023-04-16T06:44:17.691Z,7.6209
2023-04-16T06:45:19.350Z,7.6509
2023-04-16T06:46:20.999Z,7.6416
2023-04-16T06:47:22.725Z,7.6451
2023-04-16T06:48:24.340Z,7.6410
2023-04-16T06:49:25.948Z,7.5993
2023-04-16T06:50:27.648Z,7.5743
2023-04-16T06:51:29.242Z,7.5243
2023-04-16T06:52:30.899Z,7.5149
2023-04-16T06:53:32.523Z,7.5077
2023-04-16T06:54:34.162Z,7.5032
2023-04-16T06:55:35.849Z,7.4789
2023-04-16T06:56:37.435Z,7.4718
2023-04-16T06:57:39.074Z,7.4703
2023-04-16T06:58:40.735Z,7.4925
2023-04-16T06:59:42.425Z,7.4991
2023-04-16T07:00:44.141Z,7.5180
2023-04-16T07:01:45.723Z,7.5221
2023-04-16T07:02:47.512Z,7.5282
2023-04-16T07:03:49.206Z,7.5584
2023-04-16T07:04:50.599Z,7.5646
2023-04-16T07:05:52.280Z,7.5658
2023-04-16T07:06:53.885Z,7.5560
2023-04-16T07:07:55.513Z,7.5782
2023-04-16T07:08:57.185Z,7.5833
2023-04-16T07:09:58.814Z,7.5831
2023-04-16T07:11:00.486Z,7.5687
2023-04-16T07:12:02.090Z,7.5730
2023-04-16T07:13:03.750Z,7.5796
2023-04-16T07:14:05.394Z,7.6092
2023-04-16T07:15:07.025Z,7.6155
2023-04-16T07:16:08.793Z,7.6057
2023-04-16T07:17:10.364Z,7.6135
2023-04-16T07:18:12.005Z,7.6217
2023-04-16T07:19:13.608Z,7.6240
2023-04-16T07:20:15.272Z,7.6112
2023-04-16T07:21:16.951Z,7.6034
2023-04-16T07:22:18.581Z,7.5525
2023-04-16T07:23:20.201Z,7.5375
2023-04-16T07:24:21.860Z,7.5605
2023-04-16T07:25:23.548Z,7.5634
2023-04-16T07:26:25.173Z,7.5521
2023-04-16T07:27:26.787Z,7.5517
2023-04-16T07:28:28.514Z,7.5363
2023-04-16T07:29:30.108Z,7.5521
2023-04-16T07:30:31.710Z,7.5648
2023-04-16T07:31:33.348Z,7.5847
2023-04-16T07:32:35.038Z,7.6250
2023-04-16T07:33:36.566Z,7.5636
2023-04-16T07:34:38.317Z,7.5860
2023-04-16T07:35:39.862Z,7.6047
2023-04-16T07:36:41.549Z,7.6024
2023-04-16T07:37:43.150Z,7.5782
2023-04-16T07:38:44.829Z,7.5771
2023-04-16T07:39:46.465Z,7.5866
2023-04-16T07:40:48.094Z,7.5847
2023-04-16T07:41:49.803Z,7.5985
2023-04-16T07:42:51.391Z,7.5849
2023-04-16T07:43:53.038Z,7.5771
2023-04-16T07:44:54.695Z,7.5722
2023-04-16T07:45:56.468Z,7.5950
2023-04-16T07:46:58.111Z,7.5956
2023-04-16T07:47:59.880Z,7.5849
2023-04-16T07:49:01.296Z,7.5841
2023-04-16T07:50:02.908Z,7.6059
2023-04-16T07:51:04.593Z,7.6281
2023-04-16T07:52:06.231Z,7.6416
2023-04-16T07:53:07.930Z,7.6472
2023-04-16T07:54:09.502Z,7.6443
2023-04-16T07:55:11.156Z,7.6587
2023-04-16T07:56:12.798Z,7.6747
2023-04-16T07:57:14.463Z,7.6698
2023-04-16T07:58:16.106Z,7.6609
2023-04-16T07:59:23.352Z,7.6457
2023-04-16T08:00:19.384Z,7.5882
2023-04-16T08:01:21.009Z,7.5406
2023-04-16T08:02:22.828Z,7.5648
2023-04-16T08:03:24.636Z,7.5827
2023-04-16T08:04:26.536Z,7.6012
2023-04-16T08:05:27.599Z,7.6022
2023-04-16T08:06:29.222Z,7.6014
2023-04-16T08:07:31.920Z,7.6082
2023-04-16T08:08:32.514Z,7.6250
2023-04-16T08:09:34.178Z,7.5997
2023-04-16T08:10:35.821Z,7.6258
2023-04-16T08:11:37.465Z,7.6291
2023-04-16T08:12:39.131Z,7.5981
2023-04-16T08:13:40.744Z,7.6049
2023-04-16T08:14:42.382Z,7.6416
2023-04-16T08:15:44.062Z,7.6388
2023-04-16T08:16:45.735Z,7.6620
2023-04-16T08:17:47.403Z,7.6687
2023-04-16T08:18:49.172Z,7.7026
2023-04-16T08:19:50.645Z,7.6903
2023-04-16T08:20:52.281Z,7.6842
2023-04-16T08:21:53.900Z,7.7135
2023-04-16T08:22:55.608Z,7.7300
2023-04-16T08:23:57.269Z,7.7458
2023-04-16T08:24:58.864Z,7.7653
2023-04-16T08:26:00.463Z,7.7994
2023-04-16T08:27:11.448Z,7.8277
2023-04-16T08:28:03.816Z,7.8347
2023-04-16T08:29:05.414Z,7.8440
2023-04-16T08:30:07.680Z,7.8524
2023-04-16T08:31:08.783Z,7.8335
2023-04-16T08:32:10.418Z,7.8462
2023-04-16T08:33:12.124Z,7.8707
2023-04-16T08:34:13.681Z,7.8772
2023-04-16T08:35:15.321Z,7.9200
2023-04-16T08:36:16.957Z,7.9345
2023-04-16T08:37:18.608Z,7.9337
2023-04-16T08:38:20.282Z,7.9265
2023-04-16T08:39:21.923Z,7.9734
2023-04-16T08:40:23.520Z,8.0186
2023-04-16T08:41:25.171Z,8.0272
2023-04-16T08:42:26.878Z,8.0463
2023-04-16T08:43:28.481Z,8.0282
2023-04-16T08:44:30.101Z,8.0522
2023-04-16T08:45:31.743Z,8.0518
2023-04-16T08:46:33.423Z,8.0944
2023-04-16T08:47:35.057Z,8.1307
2023-04-16T08:48:36.707Z,8.1467
2023-04-16T08:49:38.308Z,8.2014
2023-04-16T08:50:39.954Z,8.2722
2023-04-16T08:51:41.605Z,8.3201
2023-04-16T08:52:43.256Z,8.3047
2023-04-16T08:53:44.927Z,8.2868
2023-04-16T08:54:46.527Z,8.2950
2023-04-16T08:55:48.192Z,8.2856
2023-04-16T08:56:49.822Z,8.2913
2023-04-16T08:57:51.464Z,8.3117
2023-04-16T08:58:53.154Z,8.2996
2023-04-16T08:59:54.762Z,8.2523
2023-04-16T09:00:56.405Z,8.2155
2023-04-16T09:01:58.249Z,8.2166
2023-04-16T09:02:59.777Z,8.2476
2023-04-16T09:04:01.685Z,8.2137
2023-04-16T09:05:03.127Z,8.1942
2023-04-16T09:06:04.686Z,8.2116
2023-04-16T09:07:06.347Z,8.1574
2023-04-16T09:08:08.006Z,8.1802
2023-04-16T09:09:10.095Z,8.2186
2023-04-16T09:10:11.298Z,8.2435
2023-04-16T09:11:12.952Z,8.2868
2023-04-16T09:12:14.553Z,8.3328
2023-04-16T09:13:16.195Z,8.3784
2023-04-16T09:14:17.878Z,8.3813
2023-04-16T09:15:19.461Z,8.4189
2023-04-16T09:16:21.099Z,8.4216
2023-04-16T09:17:22.796Z,8.4000
2023-04-16T09:18:24.345Z,8.3825
2023-04-16T09:19:26.052Z,8.3860
2023-04-16T09:20:27.661Z,8.3809
2023-04-16T09:21:29.289Z,8.3821
2023-04-16T09:22:30.898Z,8.3778
2023-04-16T09:23:32.576Z,8.3967
2023-04-16T09:24:34.218Z,8.4212
2023-04-16T09:25:35.836Z,8.4337
2023-04-16T09:26:37.474Z,8.4212
2023-04-16T09:27:39.160Z,8.3955
2023-04-16T09:28:40.756Z,8.3622
2023-04-16T09:29:42.447Z,8.3565
2023-04-16T09:30:44.055Z,8.3437
2023-04-16T09:31:45.742Z,8.3680
2023-04-16T09:32:47.367Z,8.3780
2023-04-16T09:33:48.996Z,8.4033
2023-04-16T09:34:50.696Z,8.4232
2023-04-16T09:35:52.301Z,8.4438
2023-04-16T09:36:53.954Z,8.4362
2023-04-16T09:37:55.584Z,8.4485
2023-04-16T09:38:57.844Z,8.4842
2023-04-16T09:39:58.900Z,8.5343
2023-04-16T09:41:00.503Z,8.5173
2023-04-16T09:42:02.361Z,8.5035
2023-04-16T09:43:03.778Z,8.5247
2023-04-16T09:44:05.523Z,8.5091
2023-04-16T09:45:07.079Z,8.4879
2023-04-16T09:46:08.836Z,8.4590
2023-04-16T09:47:10.348Z,8.4793
2023-04-16T09:48:12.003Z,8.4709
2023-04-16T09:49:13.626Z,8.4645
2023-04-16T09:50:17.722Z,8.4421
2023-04-16T09:51:16.911Z,8.4107
2023-04-16T09:52:18.715Z,8.3675
2023-04-16T09:53:20.207Z,8.3526
2023-04-16T09:54:21.875Z,8.3565
2023-04-16T09:55:23.542Z,8.3480
2023-04-16T09:56:25.132Z,8.3698
2023-04-16T09:57:26.807Z,8.3893
2023-04-16T09:58:28.438Z,8.3936
2023-04-16T09:59:30.199Z,8.3912
2023-04-16T10:00:31.829Z,8.4066
2023-04-16T10:01:33.407Z,8.3992
2023-04-16T10:02:35.077Z,8.4097
2023-04-16T10:03:37.021Z,8.3846
2023-04-16T10:04:38.349Z,8.3975
2023-04-16T10:05:39.986Z,8.4010
2023-04-16T10:06:41.595Z,8.4021
2023-04-16T10:07:43.260Z,8.4138
2023-04-16T10:08:44.892Z,8.4396
2023-04-16T10:09:46.529Z,8.4678
2023-04-16T10:10:48.232Z,8.4565
2023-04-16T10:11:49.810Z,8.4450
2023-04-16T10:12:51.478Z,8.4041
2023-04-16T10:13:53.181Z,8.3735
2023-04-16T10:14:54.822Z,8.3860
2023-04-16T10:15:56.536Z,8.3998
2023-04-16T10:16:58.129Z,8.4341
2023-04-16T10:17:59.846Z,8.4563
2023-04-16T10:19:01.446Z,8.4992
2023-04-16T10:20:03.051Z,8.4859
2023-04-16T10:21:04.728Z,8.4832
2023-04-16T10:22:06.398Z,8.4978
2023-04-16T10:23:07.991Z,8.5068
2023-04-16T10:24:09.638Z,8.5239
2023-04-16T10:25:11.362Z,8.5374
2023-04-16T10:26:12.986Z,8.5672
2023-04-16T10:27:14.558Z,8.5799
2023-04-16T10:28:16.199Z,8.5980
2023-04-16T10:29:17.854Z,8.6241
2023-04-16T10:30:19.497Z,8.6360
2023-04-16T10:31:21.253Z,8.6631
2023-04-16T10:32:22.822Z,8.6962
2023-04-16T10:33:24.417Z,8.7264
2023-04-16T10:34:26.039Z,8.7365
2023-04-16T10:35:27.771Z,8.7621
2023-04-16T10:36:29.389Z,8.7936
2023-04-16T10:37:30.974Z,8.8310
2023-04-16T10:38:32.658Z,8.8698
2023-04-16T10:39:34.253Z,8.9037
2023-04-16T10:40:35.935Z,8.9068
2023-04-16T10:41:37.670Z,8.9369
2023-04-16T10:42:39.180Z,9.0035
2023-04-16T10:43:40.838Z,9.0380
2023-04-16T10:44:45.229Z,9.0711
2023-04-16T10:45:44.120Z,9.1627
2023-04-16T10:46:45.809Z,9.2268
2023-04-16T10:47:47.463Z,9.2989
2023-04-16T10:48:50.652Z,9.3430
2023-04-16T10:49:50.694Z,9.4024
2023-04-16T10:50:52.314Z,9.4277
2023-04-16T10:51:54.011Z,9.4714
2023-04-16T10:52:55.595Z,9.5217
2023-04-16T10:53:57.251Z,9.5963
2023-04-16T10:54:58.918Z,9.6062
2023-04-16T10:56:00.509Z,9.6692
2023-04-16T10:57:03.773Z,9.6477
2023-04-16T10:58:03.881Z,9.6468
2023-04-16T10:59:05.426Z,9.6431
2023-04-16T11:00:07.085Z,9.6690
2023-04-16T11:01:08.709Z,9.6409
2023-04-16T11:02:10.583Z,9.6768
2023-04-16T11:03:12.125Z,9.6189
2023-04-16T11:04:13.713Z,9.5930
2023-04-16T11:05:15.267Z,9.6429
2023-04-16T11:06:16.899Z,9.6530
2023-04-16T11:07:18.576Z,9.5842
2023-04-16T11:08:20.107Z,9.5431
2023-04-16T11:09:21.708Z,9.5059
2023-04-16T11:10:23.387Z,9.5100
2023-04-16T11:11:25.242Z,9.5189
2023-04-16T11:12:26.674Z,9.5544
2023-04-16T11:13:28.292Z,9.5478
2023-04-16T11:14:29.911Z,9.5374
2023-04-16T11:15:31.529Z,9.4920
2023-04-16T11:16:33.356Z,9.5078
2023-04-16T11:17:34.901Z,9.4496
2023-04-16T11:18:36.492Z,9.4786
2023-04-16T11:19:38.122Z,9.5232
2023-04-16T11:20:39.757Z,9.5080
2023-04-16T11:21:41.398Z,9.5232
2023-04-16T11:22:43.048Z,9.5328
2023-04-16T11:23:44.692Z,9.5466
2023-04-16T11:24:46.354Z,9.5337
2023-04-16T11:25:47.990Z,9.5443
2023-04-16T11:26:49.622Z,9.5930
2023-04-16T11:27:51.325Z,9.6331
2023-04-16T11:28:52.915Z,9.6419
2023-04-16T11:29:54.555Z,9.6245
2023-04-16T11:30:56.238Z,9.5778
2023-04-16T11:31:57.836Z,9.6090
2023-04-16T11:32:59.555Z,9.5982
2023-04-16T11:34:01.142Z,9.5754
2023-04-16T11:35:02.794Z,9.5374
2023-04-16T11:36:04.424Z,9.5131
2023-04-16T11:37:06.092Z,9.4778
2023-04-16T11:38:07.805Z,9.4798
2023-04-16T11:39:09.632Z,9.4648
2023-04-16T11:40:10.995Z,9.4045
2023-04-16T11:41:12.630Z,9.3899
2023-04-16T11:42:14.376Z,9.3537
2023-04-16T11:43:15.942Z,9.3613
2023-04-16T11:44:17.704Z,9.3979
2023-04-16T11:45:19.246Z,9.3999
2023-04-16T11:46:27.466Z,9.3738
2023-04-16T11:47:22.586Z,9.3539
2023-04-16T11:48:24.162Z,9.3418
2023-04-16T11:49:25.763Z,9.3044
2023-04-16T11:50:27.431Z,9.2978
2023-04-16T11:51:29.044Z,9.2779
2023-04-16T11:52:30.707Z,9.2586
2023-04-16T11:53:32.378Z,9.2533
2023-04-16T11:54:34.006Z,9.2586
2023-04-16T11:55:35.632Z,9.2894
2023-04-16T11:56:37.293Z,9.2880
2023-04-16T11:57:38.906Z,9.3009
2023-04-16T11:58:42.445Z,9.2800
2023-04-16T12:00:02.610Z,9.2492
2023-04-16T12:00:43.866Z,9.2496
2023-04-16T12:01:45.532Z,9.2340
2023-04-16T12:02:47.280Z,9.2502
2023-04-16T12:03:49.073Z,9.2640
2023-04-16T12:04:50.511Z,9.2627
2023-04-16T12:05:52.158Z,9.2878
2023-04-16T12:06:53.705Z,9.3167
2023-04-16T12:07:55.310Z,9.3361
2023-04-16T12:08:56.994Z,9.3461
2023-04-16T12:09:58.598Z,9.3991
2023-04-16T12:11:00.251Z,9.4281
2023-04-16T12:12:01.874Z,9.4394
2023-04-16T12:13:03.575Z,9.4811
2023-04-16T12:14:05.182Z,9.4540
2023-04-16T12:15:06.778Z,9.4517
2023-04-16T12:16:08.447Z,9.5012
2023-04-16T12:17:10.398Z,9.5135
2023-04-16T12:18:11.791Z,9.5522
2023-04-16T12:19:13.502Z,9.5647
2023-04-16T12:20:14.996Z,9.5747
2023-04-16T12:21:16.659Z,9.5910
2023-04-16T12:22:18.276Z,9.5758
2023-04-16T12:23:20.190Z,9.5764
2023-04-16T12:24:21.625Z,9.5649
2023-04-16T12:25:23.196Z,9.5780
2023-04-16T12:26:24.843Z,9.5858
2023-04-16T12:27:26.490Z,9.5780
2023-04-16T12:28:28.082Z,9.5838
2023-04-16T12:29:29.802Z,9.5696
2023-04-16T12:30:31.454Z,9.5519
2023-04-16T12:31:33.018Z,9.5801
2023-04-16T12:32:34.744Z,9.5899
2023-04-16T12:33:36.312Z,9.6012
2023-04-16T12:34:49.480Z,9.6146
2023-04-16T12:35:39.599Z,9.5982
2023-04-16T12:36:41.188Z,9.6070
2023-04-16T12:37:42.847Z,9.6275
2023-04-16T12:38:44.474Z,9.6421
2023-04-16T12:39:47.912Z,9.6701
2023-04-16T12:40:47.762Z,9.6738
2023-04-16T12:41:49.525Z,9.7048
2023-04-16T12:42:51.212Z,9.7329
2023-04-16T12:43:52.781Z,9.7619
2023-04-16T12:44:54.479Z,9.8007
2023-04-16T12:45:56.074Z,9.7682
2023-04-16T12:46:57.708Z,9.8058
2023-04-16T12:47:59.378Z,9.8416
2023-04-16T12:49:01.051Z,9.8742